Time;durP1;ratioP1;P1;durP2;ratioP2;P2;SDS_P1;SDS_P2;PMS_P1;PMS_P2;Temp;Humidity;BMP_temperature;BMP_pressure;BME280_temperature;BME280_humidity;BME280_pressure;Samples;Min_cycle;Max_cycle;Signal;HPM_P1;HPM_P2
2021/12/14 00:01:17;;;;;;;23.70;14.27;;;8.60;99.90;;;;;;4972541;28;20446;-75
2021/12/14 00:03:47;;;;;;;24.98;14.25;;;8.50;99.90;;;;;;4972276;28;20101;-74
2021/12/14 00:06:15;;;;;;;21.95;14.32;;;8.60;99.90;;;;;;4986817;28;20057;-75
2021/12/14 00:08:53;;;;;;;19.40;13.70;;;8.60;99.90;;;;;;4988104;28;20136;-75
2021/12/14 00:11:33;;;;;;;21.10;14.27;;;9.30;99.90;;;;;;4971325;28;20540;-74
2021/12/14 00:14:26;;;;;;;20.58;12.43;;;8.60;99.90;;;;;;4971225;28;20509;-75
2021/12/14 00:16:58;;;;;;;21.92;14.68;;;8.60;99.90;;;;;;4953026;28;20051;-75
2021/12/14 00:19:25;;;;;;;20.73;12.70;;;8.50;99.90;;;;;;4985885;28;20071;-74
2021/12/14 00:21:54;;;;;;;21.65;13.63;;;8.60;99.90;;;;;;4958263;28;20046;-74
2021/12/14 00:24:23;;;;;;;19.02;13.07;;;8.50;99.90;;;;;;4971287;28;20046;-75
2021/12/14 00:26:54;;;;;;;20.88;13.60;;;8.50;99.90;;;;;;4971552;28;20054;-75
2021/12/14 00:29:44;;;;;;;20.20;12.75;;;8.50;99.90;;;;;;4971265;28;20502;-75
2021/12/14 00:32:17;;;;;;;20.83;13.43;;;8.50;99.90;;;;;;4966486;28;20055;-74
2021/12/14 00:34:43;;;;;;;19.83;12.27;;;8.50;99.90;;;;;;4970892;28;20077;-75
2021/12/14 00:37:23;;;;;;;18.52;12.45;;;8.50;99.90;;;;;;4969359;28;20050;-74
2021/12/14 00:39:50;;;;;;;23.70;12.30;;;8.50;99.90;;;;;;4972321;28;20125;-74
2021/12/14 00:42:17;;;;;;;17.65;11.68;;;8.50;99.90;;;;;;4972188;28;20093;-74
2021/12/14 00:44:44;;;;;;;19.58;12.25;;;8.50;99.90;;;;;;4972197;28;20047;-74
2021/12/14 00:47:10;;;;;;;19.75;12.15;;;8.50;99.90;;;;;;4971103;28;20146;-74
2021/12/14 00:49:36;;;;;;;17.20;11.57;;;8.50;99.90;;;;;;4970689;28;20041;-74
2021/12/14 00:52:04;;;;;;;20.88;12.25;;;8.50;99.90;;;;;;4971502;28;20478;-74
2021/12/14 00:54:30;;;;;;;18.33;12.05;;;8.50;99.90;;;;;;4971352;28;20051;-74
2021/12/14 00:56:56;;;;;;;17.77;12.35;;;8.60;99.90;;;;;;4967659;28;20478;-75
2021/12/14 00:59:22;;;;;;;20.17;12.35;;;8.50;99.90;;;;;;4971738;28;20046;-74
2021/12/14 01:02:04;;;;;;;20.50;13.00;;;8.50;99.90;;;;;;4971013;28;20086;-74
2021/12/14 01:05:00;;;;;;;20.58;12.30;;;8.50;99.90;;;;;;4987401;28;20141;-75
2021/12/14 01:07:29;;;;;;;21.55;12.25;;;8.50;99.90;;;;;;4971632;28;20051;-74
2021/12/14 01:09:57;;;;;;;17.17;11.70;;;8.60;99.90;;;;;;4973129;28;20055;-75
2021/12/14 01:12:44;;;;;;;19.15;12.35;;;8.50;99.90;;;;;;4974823;28;20061;-74
2021/12/14 01:15:27;;;;;;;17.02;11.60;;;8.50;99.90;;;;;;4971820;28;20039;-74
2021/12/14 01:18:16;;;;;;;16.88;11.18;;;8.50;99.90;;;;;;4988462;28;20050;-74
2021/12/14 01:20:46;;;;;;;22.10;13.13;;;8.50;99.90;;;;;;4974921;28;20050;-74
2021/12/14 01:23:18;;;;;;;18.08;12.10;;;8.50;99.90;;;;;;4973883;28;20039;-74
2021/12/14 01:25:50;;;;;;;20.15;13.05;;;8.50;99.90;;;;;;4974996;28;20496;-74
2021/12/14 01:28:21;;;;;;;23.23;12.50;;;8.50;99.90;;;;;;4974199;28;20054;-74
2021/12/14 01:31:01;;;;;;;21.75;13.10;;;8.50;99.90;;;;;;4974153;28;20055;-75
2021/12/14 01:33:28;;;;;;;20.65;13.13;;;8.50;99.90;;;;;;4974689;28;20410;-74
2021/12/14 01:35:55;;;;;;;21.58;13.82;;;8.50;99.90;;;;;;4974045;28;20548;-74
2021/12/14 01:40:58;;;;;;;19.02;12.10;;;8.60;99.90;;;;;;4974504;28;20074;-74
2021/12/14 01:43:33;;;;;;;19.30;13.07;;;8.50;99.90;;;;;;4974670;28;20043;-74
2021/12/14 01:46:03;;;;;;;21.13;13.15;;;8.50;99.90;;;;;;4990049;28;20050;-74
2021/12/14 01:48:29;;;;;;;24.73;14.73;;;8.50;99.90;;;;;;4974660;28;20049;-74
2021/12/14 01:51:00;;;;;;;21.65;13.20;;;8.50;99.90;;;;;;4973741;28;20049;-74
2021/12/14 01:53:26;;;;;;;21.17;13.75;;;8.50;99.90;;;;;;4975487;28;20093;-74
2021/12/14 01:55:57;;;;;;;24.48;14.05;;;8.50;99.90;;;;;;4974120;28;20171;-74
2021/12/14 01:58:31;;;;;;;22.15;14.15;;;8.50;99.90;;;;;;4971528;28;20057;-74
2021/12/14 02:01:01;;;;;;;24.17;14.45;;;8.50;99.90;;;;;;4975117;28;20442;-74
2021/12/14 02:03:35;;;;;;;24.55;14.98;;;8.50;99.90;;;;;;4990431;28;20101;-74
2021/12/14 02:06:01;;;;;;;22.30;13.32;;;8.40;99.90;;;;;;4960839;28;20097;-74
2021/12/14 02:08:32;;;;;;;21.52;13.98;;;8.40;99.90;;;;;;4954878;29;20047;-74
2021/12/14 02:11:00;;;;;;;24.83;14.63;;;8.50;99.90;;;;;;4958461;28;20055;-74
2021/12/14 02:13:30;;;;;;;22.02;15.02;;;8.50;99.90;;;;;;4954218;29;20464;-74
2021/12/14 02:15:57;;;;;;;25.80;14.73;;;8.50;99.90;;;;;;4969745;28;20055;-74
2021/12/14 02:18:25;;;;;;;22.73;15.25;;;8.50;99.90;;;;;;4962183;28;20047;-74
2021/12/14 02:20:55;;;;;;;26.27;15.38;;;8.50;99.90;;;;;;4972411;28;20050;-74
2021/12/14 02:23:21;;;;;;;21.73;14.70;;;8.50;99.90;;;;;;4973262;28;20049;-74
2021/12/14 02:25:48;;;;;;;22.75;14.32;;;8.50;99.90;;;;;;4974030;28;20059;-74
2021/12/14 02:28:18;;;;;;;28.85;15.75;;;8.50;99.90;;;;;;4972788;28;20047;-74
2021/12/14 02:30:46;;;;;;;24.92;15.82;;;8.50;99.90;;;;;;4972638;28;20062;-74
2021/12/14 02:33:22;;;;;;;25.02;15.98;;;8.50;99.90;;;;;;4973661;28;20051;-74
2021/12/14 02:35:49;;;;;;;26.60;16.38;;;8.50;99.90;;;;;;4973534;28;20093;-74
2021/12/14 02:38:17;;;;;;;25.58;15.80;;;8.50;99.90;;;;;;4973183;28;20061;-74
2021/12/14 02:40:56;;;;;;;28.00;17.23;;;8.50;99.90;;;;;;4972175;28;20507;-74
2021/12/14 02:43:37;;;;;;;26.25;16.88;;;8.50;99.90;;;;;;4973090;28;20457;-74
2021/12/14 02:46:19;;;;;;;27.95;16.92;;;8.50;99.90;;;;;;4973468;28;20078;-74
2021/12/14 02:48:56;;;;;;;27.55;16.85;;;8.50;99.90;;;;;;4988908;28;20053;-74
2021/12/14 02:51:28;;;;;;;30.58;17.92;;;8.50;99.90;;;;;;4973004;28;20122;-74
2021/12/14 02:53:57;;;;;;;26.48;17.30;;;8.40;99.90;;;;;;4973064;28;20089;-74
2021/12/14 02:56:27;;;;;;;27.08;17.15;;;8.40;99.90;;;;;;4973694;28;20079;-74
2021/12/14 02:59:12;;;;;;;28.48;17.60;;;8.40;99.90;;;;;;4971577;28;20065;-74
2021/12/14 03:01:39;;;;;;;28.85;17.30;;;8.40;99.90;;;;;;4972549;28;20502;-74
2021/12/14 03:04:08;;;;;;;28.23;17.88;;;8.40;99.90;;;;;;4973889;28;20043;-74
2021/12/14 03:06:45;;;;;;;28.75;17.25;;;8.40;99.90;;;;;;4973107;28;20058;-74
2021/12/14 03:09:33;;;;;;;32.03;18.42;;;8.40;99.90;;;;;;4971934;28;20429;-74
2021/12/14 03:12:05;;;;;;;26.98;16.10;;;8.40;99.90;;;;;;4973779;28;20077;-74
2021/12/14 03:14:31;;;;;;;31.20;18.27;;;8.30;99.90;;;;;;4972584;28;20108;-74
2021/12/14 03:16:57;;;;;;;30.17;18.30;;;8.30;99.90;;;;;;4987845;28;20042;-74
2021/12/14 03:19:22;;;;;;;31.48;17.70;;;8.30;99.90;;;;;;4972284;28;20046;-74
2021/12/14 03:21:49;;;;;;;30.70;19.15;;;8.30;99.90;;;;;;4988327;28;20490;-74
2021/12/14 03:24:18;;;;;;;38.72;19.05;;;8.30;99.90;;;;;;4972259;28;20388;-74
2021/12/14 03:26:51;;;;;;;30.70;18.50;;;8.30;99.90;;;;;;4974192;28;20051;-74
2021/12/14 03:29:24;;;;;;;28.48;17.92;;;8.30;99.90;;;;;;4971113;28;20031;-73
2021/12/14 03:31:54;;;;;;;31.23;18.00;;;8.30;99.90;;;;;;4971213;28;20058;-74
2021/12/14 03:34:28;;;;;;;30.90;17.98;;;8.20;99.90;;;;;;4987855;28;20054;-74
2021/12/14 03:37:04;;;;;;;32.45;19.38;;;8.30;99.90;;;;;;4988367;28;20130;-74
2021/12/14 03:39:32;;;;;;;32.92;18.52;;;8.20;99.90;;;;;;4975214;28;20173;-74
2021/12/14 03:42:07;;;;;;;32.40;19.23;;;8.20;99.90;;;;;;4971644;28;20105;-74
2021/12/14 03:44:45;;;;;;;29.67;17.90;;;8.20;99.90;;;;;;4971202;28;20374;-74
2021/12/14 03:47:19;;;;;;;32.45;19.20;;;8.20;99.90;;;;;;4972328;28;20054;-73
2021/12/14 03:49:50;;;;;;;33.40;19.38;;;8.20;99.90;;;;;;4972165;28;20470;-74
2021/12/14 03:52:19;;;;;;;31.90;19.30;;;8.30;99.90;;;;;;4987192;28;20491;-74
2021/12/14 03:54:45;;;;;;;34.42;19.45;;;8.30;99.90;;;;;;4985387;28;20050;-74
2021/12/14 03:57:12;;;;;;;36.00;20.05;;;8.20;99.90;;;;;;4971630;28;20552;-74
2021/12/14 03:59:39;;;;;;;34.75;20.70;;;8.20;99.90;;;;;;4965295;28;20035;-74
2021/12/14 04:02:09;;;;;;;34.75;19.70;;;8.20;99.90;;;;;;4971904;28;20062;-74
2021/12/14 04:04:47;;;;;;;35.92;20.20;;;8.20;99.90;;;;;;4971925;28;20051;-74
2021/12/14 04:07:14;;;;;;;34.08;19.92;;;8.20;99.90;;;;;;4971686;28;20522;-74
2021/12/14 04:09:41;;;;;;;35.33;20.88;;;8.20;99.90;;;;;;4987846;28;20065;-74
2021/12/14 04:12:14;;;;;;;34.35;19.95;;;8.20;99.90;;;;;;4971257;28;20058;-74
2021/12/14 04:14:42;;;;;;;31.98;18.98;;;8.20;99.90;;;;;;4971780;28;20058;-74
2021/12/14 04:17:09;;;;;;;35.15;20.33;;;8.20;99.90;;;;;;4987598;28;20157;-74
2021/12/14 04:19:36;;;;;;;34.60;20.83;;;8.20;99.90;;;;;;4987080;28;20490;-74
2021/12/14 04:22:07;;;;;;;32.20;20.25;;;8.20;99.90;;;;;;4971787;28;20129;-74
2021/12/14 04:24:37;;;;;;;34.90;21.00;;;8.20;99.90;;;;;;4972552;28;20122;-74
2021/12/14 04:27:07;;;;;;;37.47;20.80;;;8.20;99.90;;;;;;4972615;28;20051;-74
2021/12/14 04:29:34;;;;;;;34.95;21.05;;;8.20;99.90;;;;;;4972616;28;20061;-74
2021/12/14 04:31:59;;;;;;;34.15;20.92;;;8.20;99.90;;;;;;4972658;28;20085;-74
2021/12/14 04:34:28;;;;;;;31.85;19.60;;;8.20;99.90;;;;;;4970384;28;20063;-74
2021/12/14 04:36:55;;;;;;;33.72;20.10;;;8.20;99.90;;;;;;4987832;28;20517;-74
2021/12/14 04:53:11;;;;;;;34.55;21.27;;;8.20;99.90;;;;;;5007192;28;20062;-74
2021/12/14 04:55:42;;;;;;;42.03;23.17;;;8.20;99.90;;;;;;4974711;28;20074;-74
2021/12/14 04:58:08;;;;;;;34.88;20.95;;;8.20;99.90;;;;;;4989605;28;20043;-74
2021/12/14 05:00:39;;;;;;;38.95;21.95;;;8.20;99.90;;;;;;4973708;28;20050;-74
2021/12/14 05:03:13;;;;;;;35.85;20.95;;;8.20;99.90;;;;;;4973875;28;20081;-74
2021/12/14 05:05:46;;;;;;;37.88;21.98;;;8.30;99.90;;;;;;4974843;28;20263;-74
2021/12/14 05:10:55;;;;;;;36.22;21.20;;;8.30;99.90;;;;;;4975066;28;20055;-74
2021/12/14 05:13:31;;;;;;;35.45;20.85;;;8.30;99.90;;;;;;4974548;28;20042;-74
2021/12/14 05:15:58;;;;;;;34.75;21.60;;;8.30;99.90;;;;;;4974296;28;20572;-74
2021/12/14 05:18:24;;;;;;;39.30;22.23;;;8.30;99.90;;;;;;4974209;28;20499;-74
2021/12/14 05:20:51;;;;;;;38.92;23.02;;;8.30;99.90;;;;;;4974810;28;20130;-74
2021/12/14 05:23:26;;;;;;;33.72;20.30;;;8.30;99.90;;;;;;4990306;28;20379;-74
2021/12/14 05:25:52;;;;;;;35.15;22.45;;;8.30;99.90;;;;;;4974085;28;20521;-74
2021/12/14 05:28:20;;;;;;;41.22;22.52;;;8.20;99.90;;;;;;4974627;28;20097;-74
2021/12/14 05:30:48;;;;;;;39.17;21.90;;;8.30;99.90;;;;;;4974171;28;20058;-74
2021/12/14 05:33:18;;;;;;;41.60;23.77;;;8.30;99.90;;;;;;4974995;28;20094;-74
2021/12/14 05:35:46;;;;;;;38.40;23.13;;;8.30;99.90;;;;;;4974258;28;20048;-74
2021/12/14 05:38:18;;;;;;;38.10;21.75;;;8.20;99.90;;;;;;4973823;28;20062;-74
2021/12/14 05:43:20;;;;;;;42.40;24.60;;;8.20;99.90;;;;;;4974106;28;20051;-74
2021/12/14 05:45:51;;;;;;;41.97;23.95;;;8.20;99.90;;;;;;4973787;28;20039;-73
2021/12/14 05:48:21;;;;;;;42.97;24.85;;;8.20;99.90;;;;;;4971250;28;20126;-73
2021/12/14 05:50:50;;;;;;;32.50;19.75;;;8.20;99.90;;;;;;4988898;28;20046;-74
2021/12/14 05:53:32;;;;;;;44.15;24.20;;;8.20;99.90;;;;;;4973794;28;20045;-74
2021/12/14 05:56:01;;;;;;;42.42;24.15;;;8.20;99.90;;;;;;4971516;28;20042;-74
2021/12/14 05:58:27;;;;;;;37.58;22.92;;;8.20;99.90;;;;;;4956799;28;20047;-74
2021/12/14 06:01:04;;;;;;;41.38;24.85;;;8.20;99.90;;;;;;4966260;28;20141;-74
2021/12/14 06:03:33;;;;;;;42.38;23.70;;;8.20;99.90;;;;;;4973450;28;20077;-74
2021/12/14 06:06:01;;;;;;;43.38;23.98;;;8.20;99.90;;;;;;4974260;28;20117;-74
2021/12/14 06:08:30;;;;;;;44.58;24.60;;;8.20;99.90;;;;;;4971554;28;20075;-74
2021/12/14 06:10:56;;;;;;;44.22;25.15;;;8.20;99.90;;;;;;4971731;28;20125;-74
2021/12/14 06:13:35;;;;;;;45.13;25.92;;;8.20;99.90;;;;;;4972116;28;20056;-74
2021/12/14 06:16:00;;;;;;;43.65;25.40;;;8.20;99.90;;;;;;4972167;28;20043;-74
2021/12/14 06:18:26;;;;;;;44.05;24.95;;;8.20;99.90;;;;;;4972442;28;20478;-75
2021/12/14 06:20:51;;;;;;;44.85;24.73;;;8.20;99.90;;;;;;4972400;28;20043;-74
2021/12/14 06:23:24;;;;;;;46.00;26.65;;;8.20;99.90;;;;;;4989031;28;20403;-74
2021/12/14 06:25:50;;;;;;;45.53;26.17;;;8.20;99.90;;;;;;4984275;28;20523;-74
2021/12/14 06:28:24;;;;;;;48.15;26.70;;;8.20;99.90;;;;;;4972323;28;20162;-74
2021/12/14 06:30:50;;;;;;;48.15;27.27;;;8.20;99.90;;;;;;4972416;28;20058;-74
2021/12/14 06:33:16;;;;;;;45.85;26.00;;;8.10;99.90;;;;;;4971238;28;20109;-73
2021/12/14 06:35:47;;;;;;;43.88;25.52;;;8.20;99.90;;;;;;4973811;28;20097;-74
2021/12/14 06:38:31;;;;;;;45.63;26.10;;;8.20;99.90;;;;;;4972704;28;20047;-74
2021/12/14 06:41:11;;;;;;;49.95;26.10;;;8.10;99.90;;;;;;4988099;28;20089;-74
2021/12/14 06:43:47;;;;;;;51.42;27.00;;;8.20;99.90;;;;;;4973594;28;20102;-74
2021/12/14 06:46:35;;;;;;;52.05;28.88;;;8.40;99.90;;;;;;4971557;28;20051;-75
2021/12/14 06:49:08;;;;;;;48.53;26.83;;;8.10;99.90;;;;;;4972101;28;20046;-76
2021/12/14 06:51:39;;;;;;;48.28;27.23;;;8.10;99.90;;;;;;4972033;28;20094;-75
2021/12/14 06:54:26;;;;;;;42.42;25.38;;;8.10;99.90;;;;;;4971273;28;20081;-74
2021/12/14 06:56:58;;;;;;;46.92;26.10;;;8.10;99.90;;;;;;4972114;28;20573;-74
2021/12/14 06:59:24;;;;;;;48.95;28.55;;;8.20;99.90;;;;;;4971689;28;20046;-74
2021/12/14 07:01:53;;;;;;;51.10;27.85;;;8.20;99.90;;;;;;4962426;28;20085;-74
2021/12/14 07:04:24;;;;;;;50.65;27.58;;;8.20;99.90;;;;;;4960263;28;20486;-76
2021/12/14 07:07:02;;;;;;;49.47;27.10;;;8.20;99.90;;;;;;4973325;28;20043;-75
2021/12/14 07:09:41;;;;;;;54.30;27.85;;;8.20;99.90;;;;;;4970680;28;20087;-76
2021/12/14 07:12:12;;;;;;;53.67;29.63;;;8.20;99.90;;;;;;4973179;28;20054;-77
2021/12/14 07:14:50;;;;;;;51.95;28.95;;;8.20;99.90;;;;;;4970790;28;20459;-78
2021/12/14 07:17:26;;;;;;;57.10;29.88;;;8.10;99.90;;;;;;4972042;28;20054;-76
2021/12/14 07:19:57;;;;;;;55.25;30.02;;;8.20;99.90;;;;;;4971431;28;20064;-75
2021/12/14 07:22:27;;;;;;;51.55;28.90;;;8.10;99.90;;;;;;4970628;28;20057;-73
2021/12/14 07:25:13;;;;;;;60.97;32.10;;;8.10;99.90;;;;;;4971274;28;20046;-74
2021/12/14 07:27:52;;;;;;;57.55;32.08;;;8.10;99.90;;;;;;4971462;28;20053;-74
2021/12/14 07:30:20;;;;;;;58.38;32.15;;;8.20;99.90;;;;;;4970459;28;20046;-74
2021/12/14 07:32:55;;;;;;;56.58;31.40;;;8.10;99.90;;;;;;4970674;28;20046;-74
2021/12/14 07:35:42;;;;;;;59.67;33.53;;;8.10;99.90;;;;;;4972607;28;20112;-74
2021/12/14 07:38:10;;;;;;;54.35;30.02;;;8.10;99.90;;;;;;4971053;28;20206;-74
2021/12/14 07:40:44;;;;;;;60.22;32.42;;;8.10;99.90;;;;;;4958987;28;20640;-77
2021/12/14 07:43:27;;;;;;;59.80;32.15;;;8.10;99.90;;;;;;4962285;28;20146;-79
2021/12/14 07:45:54;;;;;;;62.95;33.25;;;8.10;99.90;;;;;;4964479;28;20051;-76
2021/12/14 07:48:36;;;;;;;61.97;32.70;;;8.10;99.90;;;;;;4963566;28;20058;-77
2021/12/14 07:51:02;;;;;;;57.50;31.35;;;8.10;99.90;;;;;;4959489;28;20720;-77
2021/12/14 07:53:42;;;;;;;64.68;32.47;;;8.10;99.90;;;;;;4961869;28;20049;-76
2021/12/14 07:56:20;;;;;;;68.72;34.45;;;8.10;99.90;;;;;;4953656;28;20137;-76
2021/12/14 07:58:48;;;;;;;63.78;33.55;;;8.10;99.90;;;;;;4958431;28;20141;-76
2021/12/14 08:01:14;;;;;;;65.93;35.35;;;8.10;99.90;;;;;;4951373;28;20565;-76
2021/12/14 08:03:40;;;;;;;62.22;33.85;;;8.10;99.90;;;;;;4958144;28;20218;-76
2021/12/14 08:06:12;;;;;;;67.63;35.10;;;8.10;99.90;;;;;;4958134;28;20047;-76
2021/12/14 08:08:45;;;;;;;63.13;33.17;;;8.10;99.90;;;;;;4958743;28;20043;-76
2021/12/14 08:11:47;;;;;;;67.25;35.40;;;8.10;99.90;;;;;;4949115;28;20066;-76
2021/12/14 08:14:25;;;;;;;68.28;34.85;;;8.10;99.90;;;;;;4958147;28;20047;-77
2021/12/14 08:16:58;;;;;;;67.40;34.55;;;8.10;99.90;;;;;;4959099;28;20057;-75
2021/12/14 08:19:39;;;;;;;73.03;34.58;;;8.20;99.90;;;;;;4959705;28;20050;-74
2021/12/14 08:22:09;;;;;;;73.72;34.90;;;8.20;99.90;;;;;;4954711;28;20081;-75
2021/12/14 08:24:37;;;;;;;71.78;35.92;;;8.20;99.90;;;;;;4957420;28;20059;-75
2021/12/14 08:27:06;;;;;;;71.35;36.42;;;8.20;99.90;;;;;;4958210;28;20078;-75
2021/12/14 08:29:34;;;;;;;62.28;32.40;;;8.20;99.90;;;;;;4957977;28;20514;-75
2021/12/14 08:32:06;;;;;;;76.70;37.55;;;8.20;99.90;;;;;;4952560;28;20578;-75
2021/12/14 08:34:36;;;;;;;79.32;36.45;;;8.20;99.90;;;;;;4957595;28;20035;-74
2021/12/14 08:37:32;;;;;;;75.40;37.95;;;8.20;99.90;;;;;;4957230;28;20518;-74
2021/12/14 08:40:19;;;;;;;80.38;34.90;;;8.20;99.90;;;;;;4949491;28;20066;-75
2021/12/14 08:43:22;;;;;;;75.07;36.90;;;8.20;99.90;;;;;;4975013;28;20169;-75
2021/12/14 08:45:53;;;;;;;74.80;35.40;;;8.20;99.90;;;;;;4974445;28;20175;-74
2021/12/14 08:48:26;;;;;;;73.05;36.15;;;8.30;99.90;;;;;;4974485;28;20593;-74
2021/12/14 08:51:13;;;;;;;70.82;35.03;;;8.30;99.90;;;;;;4951530;28;20058;-75
2021/12/14 08:53:44;;;;;;;74.10;36.15;;;8.20;99.90;;;;;;4959082;28;20066;-75
2021/12/14 08:56:11;;;;;;;78.57;37.83;;;8.30;99.90;;;;;;4959721;28;20051;-75
2021/12/14 08:58:38;;;;;;;82.93;39.17;;;8.30;99.90;;;;;;4958814;28;20051;-75
2021/12/14 09:01:11;;;;;;;75.30;38.78;;;8.30;99.90;;;;;;4952859;28;20134;-75
2021/12/14 09:03:46;;;;;;;74.95;36.45;;;8.30;99.90;;;;;;4959344;28;20073;-76
2021/12/14 09:06:17;;;;;;;81.68;39.03;;;8.30;99.90;;;;;;4958113;28;20059;-75
2021/12/14 09:08:45;;;;;;;79.57;37.33;;;8.30;99.90;;;;;;4958183;28;20065;-75
2021/12/14 09:11:16;;;;;;;79.78;36.90;;;8.30;99.90;;;;;;4951161;28;20154;-75
2021/12/14 09:13:43;;;;;;;81.65;37.30;;;8.30;99.90;;;;;;4958509;28;20055;-75
2021/12/14 09:16:17;;;;;;;80.57;39.35;;;8.30;99.90;;;;;;4957477;28;20046;-74
2021/12/14 09:18:46;;;;;;;;;;;8.40;99.90;;;;;;4958605;28;20051;-75
2021/12/14 09:21:15;;;;;;;67.47;35.22;;;8.40;99.90;;;;;;4983185;28;19937;-75
2021/12/14 09:23:48;;;;;;;69.53;34.03;;;8.40;99.90;;;;;;4953399;28;20501;-74
2021/12/14 09:26:20;;;;;;;77.43;37.25;;;8.40;99.90;;;;;;4957160;28;20405;-75
2021/12/14 09:28:47;;;;;;;74.18;37.22;;;8.40;99.90;;;;;;4957501;28;21386;-74
2021/12/14 09:31:19;;;;;;;73.82;36.67;;;8.40;99.90;;;;;;4954000;28;20430;-74
2021/12/14 09:33:45;;;;;;;74.25;36.95;;;8.40;99.90;;;;;;4961433;28;20162;-74
2021/12/14 09:36:13;;;;;;;71.82;36.83;;;8.40;99.90;;;;;;4958618;28;20050;-75
2021/12/14 09:38:47;;;;;;;73.68;36.33;;;8.50;99.90;;;;;;4960010;28;20513;-75
2021/12/14 09:41:17;;;;;;;65.32;35.22;;;8.40;99.90;;;;;;4955910;28;20164;-74
2021/12/14 09:43:45;;;;;;;71.00;36.47;;;8.50;99.90;;;;;;4960231;28;20050;-75
2021/12/14 09:46:11;;;;;;;70.18;38.00;;;8.50;99.90;;;;;;4960289;28;20055;-74
2021/12/14 09:48:41;;;;;;;69.00;37.17;;;8.50;99.90;;;;;;4961771;28;20054;-75
2021/12/14 09:51:15;;;;;;;70.97;36.22;;;8.50;99.90;;;;;;4953686;28;20108;-74
2021/12/14 09:53:46;;;;;;;71.85;37.53;;;8.50;99.90;;;;;;4961082;28;20042;-75
2021/12/14 09:56:13;;;;;;;70.05;36.28;;;8.60;99.90;;;;;;4960322;28;20059;-75
2021/12/14 09:58:45;;;;;;;73.03;36.78;;;8.60;99.90;;;;;;4962432;28;20047;-75
2021/12/14 10:01:31;;;;;;;67.57;36.65;;;8.60;99.90;;;;;;4954327;28;20051;-75
2021/12/14 10:04:00;;;;;;;75.03;36.60;;;8.60;99.90;;;;;;4959125;28;20998;-74
2021/12/14 10:06:29;;;;;;;70.15;36.47;;;8.60;99.90;;;;;;4960135;28;20530;-75
2021/12/14 10:09:02;;;;;;;72.70;36.00;;;8.60;99.90;;;;;;4960215;28;20042;-75
2021/12/14 10:11:49;;;;;;;71.85;36.17;;;8.60;99.90;;;;;;4965603;28;20057;-74
2021/12/14 10:14:17;;;;;;;71.68;36.03;;;8.60;99.90;;;;;;4962056;28;20066;-74
2021/12/14 10:16:43;;;;;;;69.22;36.08;;;8.60;99.90;;;;;;4961187;28;20050;-74
2021/12/14 10:19:16;;;;;;;67.32;36.90;;;8.60;99.90;;;;;;4960323;28;20057;-74
2021/12/14 10:21:54;;;;;;;69.75;36.13;;;8.60;99.90;;;;;;4953688;28;20054;-74
2021/12/14 10:24:20;;;;;;;74.95;36.33;;;8.60;99.90;;;;;;4961665;28;20069;-75
2021/12/14 10:26:50;;;;;;;69.68;35.28;;;8.60;99.90;;;;;;4960238;28;20047;-75
2021/12/14 10:29:17;;;;;;;59.75;31.83;;;8.60;99.90;;;;;;4960496;28;20070;-74
2021/12/14 10:31:50;;;;;;;70.32;35.35;;;8.60;99.90;;;;;;4957566;28;20057;-75
2021/12/14 10:34:24;;;;;;;65.40;35.10;;;8.60;99.90;;;;;;4958321;28;20574;-74
2021/12/14 10:37:04;;;;;;;64.28;33.13;;;8.60;99.90;;;;;;4959281;28;20059;-75
2021/12/14 10:44:50;;;;;;;68.60;35.92;;;8.60;99.90;;;;;;4957460;28;20062;-75
2021/12/14 10:47:20;;;;;;;64.85;34.50;;;8.60;99.90;;;;;;4972009;28;20078;-74
2021/12/14 10:49:46;;;;;;;71.25;36.35;;;8.70;99.90;;;;;;4953169;28;20758;-74
2021/12/14 10:52:18;;;;;;;66.03;33.63;;;8.70;99.90;;;;;;4951380;28;20055;-75
2021/12/14 10:54:47;;;;;;;67.75;35.80;;;8.70;99.90;;;;;;4955649;28;20137;-75
2021/12/14 10:57:17;;;;;;;70.07;34.40;;;8.60;99.90;;;;;;4957460;28;20854;-74
2021/12/14 10:59:46;;;;;;;62.40;32.47;;;8.70;99.90;;;;;;4953537;28;20529;-75
2021/12/14 11:02:12;;;;;;;59.67;31.90;;;8.70;99.90;;;;;;4949462;28;20191;-74
2021/12/14 11:04:56;;;;;;;60.00;32.45;;;8.70;99.90;;;;;;4958090;28;20043;-71
2021/12/14 11:07:24;;;;;;;59.40;30.02;;;8.70;99.90;;;;;;4957347;28;20050;-74
2021/12/14 11:09:53;;;;;;;60.03;31.75;;;8.70;99.90;;;;;;4950617;28;20828;-73
2021/12/14 11:12:33;;;;;;;58.58;31.83;;;8.70;99.90;;;;;;4955747;28;20062;-73
2021/12/14 11:15:06;;;;;;;68.75;33.10;;;8.70;99.90;;;;;;4950865;28;20106;-74
2021/12/14 11:20:37;;;;;;;62.40;31.85;;;8.70;99.90;;;;;;4953239;28;21165;-74
2021/12/14 11:23:03;;;;;;;57.10;30.42;;;8.80;99.90;;;;;;4953926;28;20162;-73
2021/12/14 11:25:32;;;;;;;57.45;30.35;;;8.70;99.90;;;;;;4967216;28;20061;-74
2021/12/14 11:28:02;;;;;;;58.50;30.02;;;8.70;99.90;;;;;;4946696;28;20101;-74
2021/12/14 11:30:36;;;;;;;57.95;29.25;;;8.70;99.90;;;;;;4965069;28;20047;-74
2021/12/14 11:33:07;;;;;;;58.90;28.80;;;8.80;99.90;;;;;;4949160;28;20081;-74
2021/12/14 11:35:40;;;;;;;56.85;30.35;;;8.80;99.90;;;;;;4949693;28;20043;-74
2021/12/14 11:38:21;;;;;;;56.50;29.42;;;8.80;99.90;;;;;;4947865;28;20181;-73
2021/12/14 11:40:47;;;;;;;55.75;29.23;;;8.80;99.90;;;;;;4950388;28;20102;-74
2021/12/14 11:43:17;;;;;;;59.70;30.70;;;8.80;99.90;;;;;;4951415;28;20887;-74
2021/12/14 11:45:46;;;;;;;53.83;30.50;;;8.80;99.90;;;;;;4949229;28;20574;-74
2021/12/14 11:48:13;;;;;;;60.63;30.10;;;8.80;99.90;;;;;;4949029;28;20097;-74
2021/12/14 11:50:45;;;;;;;59.28;31.45;;;8.80;99.90;;;;;;4966771;28;21149;-74
2021/12/14 11:53:18;;;;;;;58.63;30.58;;;8.80;99.90;;;;;;4948921;28;20079;-76
2021/12/14 11:56:10;;;;;;;64.00;30.98;;;8.80;99.90;;;;;;4953081;28;20047;-76
2021/12/14 11:58:48;;;;;;;49.92;27.33;;;8.80;99.90;;;;;;4952388;28;20130;-76
2021/12/14 12:01:46;;;;;;;56.85;27.85;;;8.90;99.90;;;;;;4968793;28;20186;-73
2021/12/14 12:04:21;;;;;;;57.88;28.33;;;8.80;99.90;;;;;;4947198;28;20090;-76
2021/12/14 12:09:41;;;;;;;63.95;30.38;;;8.90;99.90;;;;;;4952747;28;20066;-73
2021/12/14 12:12:36;;;;;;;67.82;29.23;;;8.80;99.90;;;;;;4972812;28;20536;-75
2021/12/14 12:15:14;;;;;;;61.55;30.40;;;8.80;99.90;;;;;;4966580;28;20050;-75
2021/12/14 12:17:56;;;;;;;56.22;29.38;;;8.80;99.90;;;;;;4953589;28;20153;-75
2021/12/14 12:20:31;;;;;;;62.55;30.63;;;8.80;99.90;;;;;;4973380;28;20085;-75
2021/12/14 12:23:12;;;;;;;56.97;27.70;;;8.90;99.90;;;;;;4974897;28;20116;-75
2021/12/14 12:25:42;;;;;;;60.15;30.67;;;8.80;99.90;;;;;;4969075;28;20055;-75
2021/12/14 12:28:18;;;;;;;58.25;29.17;;;8.80;99.90;;;;;;4968354;28;20054;-74
2021/12/14 12:30:49;;;;;;;63.85;32.00;;;8.80;99.90;;;;;;4956180;28;20540;-74
2021/12/14 12:33:30;;;;;;;61.78;30.40;;;8.80;99.90;;;;;;4971796;28;20058;-75
2021/12/14 12:36:08;;;;;;;64.78;30.05;;;8.90;99.90;;;;;;4953545;28;20379;-77
2021/12/14 12:39:00;;;;;;;66.68;31.00;;;8.80;99.90;;;;;;4945938;28;20063;-74
2021/12/14 12:41:37;;;;;;;69.43;30.15;;;8.80;99.90;;;;;;4945594;28;20065;-75
2021/12/14 12:44:28;;;;;;;61.97;28.75;;;8.80;99.90;;;;;;4957712;28;20042;-74
2021/12/14 12:47:02;;;;;;;66.28;29.33;;;8.80;99.90;;;;;;4955986;28;20059;-73
2021/12/14 12:49:29;;;;;;;71.20;29.92;;;8.90;99.90;;;;;;4952311;28;20422;-73
2021/12/14 12:51:58;;;;;;;71.03;31.05;;;8.90;99.90;;;;;;4974442;28;20055;-74
2021/12/14 12:54:27;;;;;;;74.20;31.60;;;8.90;99.90;;;;;;4974868;28;20049;-74
2021/12/14 12:57:11;;;;;;;63.15;30.67;;;8.90;99.90;;;;;;4964603;28;20083;-73
2021/12/14 12:59:54;;;;;;;68.55;31.35;;;8.90;99.90;;;;;;4946655;28;20063;-75
2021/12/14 13:02:30;;;;;;;68.07;31.00;;;8.90;99.90;;;;;;4940857;28;20054;-74
2021/12/14 13:05:01;;;;;;;68.55;30.33;;;8.90;99.90;;;;;;4958254;28;20043;-73
2021/12/14 13:07:34;;;;;;;75.93;30.98;;;8.90;99.90;;;;;;4960248;28;20069;-73
2021/12/14 13:10:13;;;;;;;75.03;29.23;;;8.90;99.90;;;;;;4954129;28;20051;-73
2021/12/14 13:12:47;;;;;;;83.05;31.40;;;8.90;99.90;;;;;;4971905;28;20091;-73
2021/12/14 13:15:45;;;;;;;64.75;27.58;;;9.00;99.90;;;;;;4947001;28;20742;-73
2021/12/14 13:18:34;;;;;;;66.93;27.83;;;9.00;99.90;;;;;;4956000;28;20075;-73
2021/12/14 13:21:12;;;;;;;59.95;27.05;;;9.00;99.90;;;;;;4957769;28;20086;-73
2021/12/14 13:23:54;;;;;;;65.53;27.17;;;9.00;99.90;;;;;;4961587;28;20065;-73
2021/12/14 13:26:29;;;;;;;67.35;29.42;;;9.00;99.90;;;;;;4963725;28;20817;-74
2021/12/14 13:29:21;;;;;;;63.47;27.20;;;9.00;99.90;;;;;;4947553;28;20118;-74
2021/12/14 13:31:58;;;;;;;65.10;27.55;;;9.00;99.90;;;;;;4949469;28;20090;-74
2021/12/14 13:34:31;;;;;;;64.22;27.60;;;9.00;99.90;;;;;;4956391;28;20067;-74
2021/12/14 13:36:58;;;;;;;60.63;26.70;;;9.10;99.90;;;;;;4951507;28;20082;-73
2021/12/14 13:39:25;;;;;;;64.40;26.48;;;9.00;99.90;;;;;;4948408;28;20066;-74